Time;durP1;ratioP1;P1;durP2;ratioP2;P2;SDS_P1;SDS_P2;PMS_P1;PMS_P2;Temp;Humidity;BMP_temperature;BMP_pressure;BME280_temperature;BME280_humidity;BME280_pressure;Samples;Min_cycle;Max_cycle;Signal;HPM_P1;HPM_P2
2024/01/02 00:02:14;;;;;;;177.13;44.45;;;;;;;;;;4995731;28;20026;-50
2024/01/02 00:04:40;;;;;;;135.43;41.78;;;;;;;;;;5013236;28;20034;-51
2024/01/02 00:07:06;;;;;;;133.75;43.45;;;;;;;;;;4979658;28;20141;-52
2024/01/02 00:09:32;;;;;;;197.47;45.97;;;;;;;;;;4995424;28;20026;-51
2024/01/02 00:11:58;;;;;;;214.05;47.75;;;;;;;;;;5013074;28;20115;-49
2024/01/02 00:14:28;;;;;;;155.88;41.78;;;;;;;;;;4994995;28;20033;-50
2024/01/02 00:16:54;;;;;;;160.63;42.10;;;;;;;;;;5013231;28;20036;-53
2024/01/02 00:19:21;;;;;;;244.30;46.22;;;;;;;;;;4979337;28;20419;-52
2024/01/02 00:21:47;;;;;;;175.20;43.70;;;;;;;;;;5012897;28;20026;-51
2024/01/02 00:24:13;;;;;;;108.95;39.13;;;;;;;;;;5012649;28;20038;-51
2024/01/02 00:26:40;;;;;;;180.70;44.40;;;;;;;;;;5013056;28;20409;-52
2024/01/02 00:29:06;;;;;;;229.02;49.58;;;;;;;;;;4995122;28;20034;-50
2024/01/02 00:31:32;;;;;;;264.17;50.30;;;;;;;;;;5012476;28;20037;-55
2024/01/02 00:33:58;;;;;;;213.15;45.15;;;;;;;;;;4975556;28;20404;-53
2024/01/02 00:36:25;;;;;;;260.42;51.67;;;;;;;;;;4995301;28;20049;-53
2024/01/02 00:38:51;;;;;;;136.73;40.10;;;;;;;;;;4994393;28;20030;-52
2024/01/02 00:41:17;;;;;;;173.07;42.53;;;;;;;;;;5012677;28;20116;-50
2024/01/02 00:43:44;;;;;;;205.07;45.88;;;;;;;;;;4978567;28;20030;-51
2024/01/02 00:46:10;;;;;;;187.13;45.20;;;;;;;;;;4991511;28;20481;-52
2024/01/02 00:48:36;;;;;;;183.27;42.47;;;;;;;;;;4975343;28;20477;-52
2024/01/02 00:51:03;;;;;;;226.43;43.20;;;;;;;;;;4993472;28;20057;-53
2024/01/02 00:53:29;;;;;;;155.20;38.87;;;;;;;;;;5004263;28;20124;-52
2024/01/02 00:55:55;;;;;;;305.02;55.80;;;;;;;;;;5011722;28;20026;-54
2024/01/02 00:58:21;;;;;;;415.60;64.25;;;;;;;;;;4994748;28;20029;-50
2024/01/02 01:00:47;;;;;;;246.40;50.37;;;;;;;;;;4994382;28;20432;-50
2024/01/02 01:03:14;;;;;;;227.90;49.20;;;;;;;;;;4978278;28;20028;-50
2024/01/02 01:05:40;;;;;;;312.30;54.70;;;;;;;;;;4994530;28;20482;-50
2024/01/02 01:08:06;;;;;;;237.43;47.30;;;;;;;;;;4994356;28;20026;-50
2024/01/02 01:10:32;;;;;;;300.17;58.78;;;;;;;;;;5011868;28;20030;-50
2024/01/02 01:12:58;;;;;;;277.70;51.28;;;;;;;;;;4994393;28;20033;-50
2024/01/02 01:15:25;;;;;;;221.52;46.25;;;;;;;;;;4994292;28;20458;-52
2024/01/02 01:17:51;;;;;;;146.27;44.23;;;;;;;;;;4994597;28;20460;-48
2024/01/02 01:20:17;;;;;;;189.93;47.08;;;;;;;;;;5012564;28;20069;-50
2024/01/02 01:22:43;;;;;;;204.77;47.30;;;;;;;;;;5012478;28;20034;-50
2024/01/02 01:25:10;;;;;;;430.20;70.87;;;;;;;;;;4993922;28;20500;-53
2024/01/02 01:27:36;;;;;;;375.08;67.70;;;;;;;;;;4994348;28;20447;-50
2024/01/02 01:30:02;;;;;;;306.83;55.53;;;;;;;;;;4994522;28;20092;-49
2024/01/02 01:32:28;;;;;;;206.60;49.47;;;;;;;;;;4994125;28;20400;-50
2024/01/02 01:34:54;;;;;;;210.68;48.50;;;;;;;;;;4994106;28;20447;-50
2024/01/02 01:37:21;;;;;;;213.40;49.33;;;;;;;;;;4978161;28;20030;-48
2024/01/02 01:39:47;;;;;;;246.82;52.65;;;;;;;;;;4974373;28;20070;-48
2024/01/02 01:42:13;;;;;;;280.75;56.00;;;;;;;;;;4974838;28;20420;-50
2024/01/02 01:44:39;;;;;;;242.97;51.20;;;;;;;;;;5005228;28;20030;-49
2024/01/02 01:47:05;;;;;;;318.95;61.95;;;;;;;;;;4993805;28;20435;-51
2024/01/02 01:49:32;;;;;;;214.43;52.22;;;;;;;;;;5011655;28;20032;-50
2024/01/02 01:51:59;;;;;;;183.32;45.70;;;;;;;;;;5011795;28;20481;-50
2024/01/02 01:54:25;;;;;;;165.80;46.63;;;;;;;;;;5011516;28;20030;-50
2024/01/02 01:56:53;;;;;;;169.67;48.60;;;;;;;;;;4993920;28;20109;-49
2024/01/02 01:59:19;;;;;;;;;;;;;;;;;;4994426;28;20342;-50
2024/01/02 02:01:45;;;;;;;205.18;47.03;;;;;;;;;;4993848;28;19941;-48
2024/01/02 02:04:12;;;;;;;159.20;44.90;;;;;;;;;;4977415;28;20163;-51
2024/01/02 02:06:38;;;;;;;236.67;49.77;;;;;;;;;;5012105;28;20516;-49
2024/01/02 02:09:04;;;;;;;190.32;45.97;;;;;;;;;;4997697;28;20123;-49
2024/01/02 02:11:31;;;;;;;198.23;48.83;;;;;;;;;;5015594;28;20033;-52
2024/01/02 02:13:57;;;;;;;260.33;51.50;;;;;;;;;;5014846;28;20022;-49
2024/01/02 02:16:24;;;;;;;229.07;48.75;;;;;;;;;;5015271;28;20041;-50
2024/01/02 02:18:50;;;;;;;200.85;47.38;;;;;;;;;;4996856;28;20081;-51
2024/01/02 02:21:16;;;;;;;156.65;44.67;;;;;;;;;;4981769;28;20022;-50
2024/01/02 02:23:43;;;;;;;224.13;51.13;;;;;;;;;;4997404;28;20026;-50
2024/01/02 02:26:09;;;;;;;172.70;48.30;;;;;;;;;;4997408;28;20576;-50
2024/01/02 02:28:35;;;;;;;215.65;52.38;;;;;;;;;;5014524;28;20053;-50
2024/01/02 02:31:01;;;;;;;242.27;57.88;;;;;;;;;;5015072;28;20110;-49
2024/01/02 02:33:27;;;;;;;157.97;44.50;;;;;;;;;;5014940;28;20022;-48
2024/01/02 02:35:54;;;;;;;179.80;47.85;;;;;;;;;;5014816;28;20093;-50
2024/01/02 02:38:20;;;;;;;273.88;55.67;;;;;;;;;;4997041;28;20380;-49
2024/01/02 02:40:46;;;;;;;224.50;51.05;;;;;;;;;;4997297;28;20514;-50
2024/01/02 02:43:18;;;;;;;257.17;50.03;;;;;;;;;;4981495;28;20026;-51
2024/01/02 02:45:44;;;;;;;154.90;47.90;;;;;;;;;;5014860;28;20034;-50
2024/01/02 02:48:10;;;;;;;211.05;53.95;;;;;;;;;;4997071;28;20054;-50
2024/01/02 02:50:36;;;;;;;255.15;55.05;;;;;;;;;;4996899;28;20033;-52
2024/01/02 02:53:03;;;;;;;180.80;49.05;;;;;;;;;;5014647;28;20018;-50
2024/01/02 02:55:29;;;;;;;147.37;46.33;;;;;;;;;;5013909;28;20026;-54
2024/01/02 02:57:56;;;;;;;198.40;49.60;;;;;;;;;;4996961;28;20030;-51
2024/01/02 03:00:22;;;;;;;154.95;45.85;;;;;;;;;;4996187;28;20124;-50
2024/01/02 03:02:48;;;;;;;165.65;46.35;;;;;;;;;;5014287;28;20026;-50
2024/01/02 03:05:15;;;;;;;299.50;61.70;;;;;;;;;;4996496;28;20721;-49
2024/01/02 03:07:42;;;;;;;210.50;49.60;;;;;;;;;;5014330;28;20022;-51
2024/01/02 03:10:10;;;;;;;248.02;57.15;;;;;;;;;;4996626;28;20030;-50
2024/01/02 03:12:36;;;;;;;316.40;66.80;;;;;;;;;;5013994;28;20026;-50
2024/01/02 03:15:03;;;;;;;236.13;50.97;;;;;;;;;;4996652;28;20077;-50
2024/01/02 03:17:29;;;;;;;176.55;47.10;;;;;;;;;;5014062;28;20037;-50
2024/01/02 03:19:55;;;;;;;170.70;46.17;;;;;;;;;;5013255;28;20033;-50
2024/01/02 03:22:21;;;;;;;290.73;54.38;;;;;;;;;;5013074;28;20063;-48
2024/01/02 03:24:47;;;;;;;164.70;45.97;;;;;;;;;;5012929;28;20477;-49
2024/01/02 03:27:14;;;;;;;167.85;46.83;;;;;;;;;;5014033;28;20036;-48
2024/01/02 03:29:40;;;;;;;220.75;49.30;;;;;;;;;;4996238;28;20033;-52
2024/01/02 03:32:06;;;;;;;387.35;66.35;;;;;;;;;;5013851;28;20384;-50
2024/01/02 03:34:32;;;;;;;267.70;57.13;;;;;;;;;;5013821;28;20033;-51
2024/01/02 03:36:59;;;;;;;152.00;44.03;;;;;;;;;;5013800;28;20109;-53
2024/01/02 03:39:25;;;;;;;180.75;45.05;;;;;;;;;;5013627;28;20378;-50
2024/01/02 03:41:51;;;;;;;263.83;55.30;;;;;;;;;;5013768;28;20022;-50
2024/01/02 03:44:18;;;;;;;143.75;42.83;;;;;;;;;;5013587;28;20038;-51
2024/01/02 03:46:44;;;;;;;188.45;46.33;;;;;;;;;;4995852;28;20087;-51
2024/01/02 03:49:10;;;;;;;264.83;52.55;;;;;;;;;;5013550;28;20026;-50
2024/01/02 03:51:37;;;;;;;188.65;48.47;;;;;;;;;;4995542;28;20473;-55
2024/01/02 03:54:03;;;;;;;299.40;57.70;;;;;;;;;;4995567;28;20040;-50
2024/01/02 03:56:29;;;;;;;250.98;48.40;;;;;;;;;;5013481;28;20026;-50
2024/01/02 03:58:55;;;;;;;243.90;52.47;;;;;;;;;;5013220;28;20030;-51
2024/01/02 04:01:21;;;;;;;237.52;49.30;;;;;;;;;;5012741;28;20029;-49
2024/01/02 04:03:48;;;;;;;216.00;47.72;;;;;;;;;;5012896;28;20022;-48
2024/01/02 04:06:14;;;;;;;191.82;44.75;;;;;;;;;;4995668;28;20067;-50
2024/01/02 04:08:40;;;;;;;131.87;41.33;;;;;;;;;;5012501;28;20380;-50
2024/01/02 04:11:07;;;;;;;229.85;51.13;;;;;;;;;;5012580;28;20029;-54
2024/01/02 04:13:33;;;;;;;187.65;45.30;;;;;;;;;;5013138;28;20029;-55
2024/01/02 04:15:59;;;;;;;130.45;39.47;;;;;;;;;;5012875;28;20029;-50
2024/01/02 04:18:26;;;;;;;135.13;40.08;;;;;;;;;;5013056;28;20600;-51
2024/01/02 04:20:52;;;;;;;218.63;47.15;;;;;;;;;;4995513;28;20061;-50
2024/01/02 04:23:18;;;;;;;176.65;42.30;;;;;;;;;;5012907;28;20145;-49
2024/01/02 04:25:44;;;;;;;354.73;60.50;;;;;;;;;;5013142;28;20022;-49
2024/01/02 04:28:10;;;;;;;173.10;42.78;;;;;;;;;;5012707;28;20030;-54
2024/01/02 04:30:36;;;;;;;327.23;51.25;;;;;;;;;;5011793;28;20018;-50
2024/01/02 04:33:03;;;;;;;150.32;42.45;;;;;;;;;;5012615;28;20022;-50
2024/01/02 04:35:29;;;;;;;164.77;42.80;;;;;;;;;;5012864;28;20068;-51
2024/01/02 04:37:55;;;;;;;202.48;44.63;;;;;;;;;;5012342;28;20488;-50
2024/01/02 04:40:22;;;;;;;172.43;43.55;;;;;;;;;;5012565;28;20025;-53
2024/01/02 04:42:48;;;;;;;448.38;67.18;;;;;;;;;;5012658;28;20163;-50
2024/01/02 04:45:14;;;;;;;195.68;45.10;;;;;;;;;;5012421;28;20037;-49
2024/01/02 04:47:40;;;;;;;291.20;52.92;;;;;;;;;;5012196;28;20507;-52
2024/01/02 04:50:06;;;;;;;217.57;45.95;;;;;;;;;;5012118;28;20097;-50
2024/01/02 04:52:33;;;;;;;335.50;61.70;;;;;;;;;;5012479;28;20030;-52
2024/01/02 04:54:59;;;;;;;158.93;43.10;;;;;;;;;;5012585;28;20267;-54
2024/01/02 04:57:26;;;;;;;206.98;45.67;;;;;;;;;;5012646;28;20029;-55
2024/01/02 04:59:52;;;;;;;266.98;53.90;;;;;;;;;;5012562;28;20400;-53
2024/01/02 05:02:23;;;;;;;201.67;47.10;;;;;;;;;;5012413;28;20048;-54
2024/01/02 05:04:50;;;;;;;169.23;46.20;;;;;;;;;;5012361;28;20034;-52
2024/01/02 05:07:16;;;;;;;387.02;67.93;;;;;;;;;;5012599;28;20034;-55
2024/01/02 05:09:42;;;;;;;149.05;41.83;;;;;;;;;;4994601;28;20365;-56
2024/01/02 05:12:09;;;;;;;158.77;43.67;;;;;;;;;;4994790;28;20405;-53
2024/01/02 05:14:35;;;;;;;159.23;43.85;;;;;;;;;;5012335;28;20468;-55
2024/01/02 05:17:01;;;;;;;135.10;40.65;;;;;;;;;;5011953;28;20076;-54
2024/01/02 05:19:28;;;;;;;283.77;59.30;;;;;;;;;;5011809;28;20025;-50
2024/01/02 05:21:54;;;;;;;130.18;38.20;;;;;;;;;;5012610;28;20437;-51
2024/01/02 05:24:21;;;;;;;232.75;48.80;;;;;;;;;;5012170;28;20053;-54
2024/01/02 05:26:47;;;;;;;176.45;44.28;;;;;;;;;;4978478;28;20026;-52
2024/01/02 05:29:13;;;;;;;187.85;42.22;;;;;;;;;;5012028;28;20034;-50
2024/01/02 05:31:39;;;;;;;143.35;38.25;;;;;;;;;;5012230;28;20068;-53
2024/01/02 05:34:06;;;;;;;193.02;45.03;;;;;;;;;;4994354;28;20104;-50
2024/01/02 05:36:32;;;;;;;136.32;38.70;;;;;;;;;;5011882;28;20029;-50
2024/01/02 05:38:58;;;;;;;183.80;44.25;;;;;;;;;;4993944;28;20038;-50
2024/01/02 05:41:24;;;;;;;204.27;44.30;;;;;;;;;;5011731;28;20053;-50
2024/01/02 05:43:50;;;;;;;177.95;41.22;;;;;;;;;;5012019;28;20484;-50
2024/01/02 05:46:16;;;;;;;359.92;60.80;;;;;;;;;;5012073;28;20112;-50
2024/01/02 05:48:43;;;;;;;128.13;38.25;;;;;;;;;;4994019;28;20113;-50
2024/01/02 05:51:09;;;;;;;196.82;43.03;;;;;;;;;;4994261;28;20026;-50
2024/01/02 05:53:35;;;;;;;250.60;48.30;;;;;;;;;;5011978;28;20030;-50
2024/01/02 05:56:01;;;;;;;327.85;56.75;;;;;;;;;;4994309;28;20033;-49
2024/01/02 05:58:27;;;;;;;169.82;44.70;;;;;;;;;;5023135;28;20640;-49
2024/01/02 06:00:53;;;;;;;133.35;38.03;;;;;;;;;;5031633;28;20033;-49
2024/01/02 06:03:20;;;;;;;190.93;44.55;;;;;;;;;;5031499;28;20083;-49
2024/01/02 06:05:46;;;;;;;169.32;40.60;;;;;;;;;;5031480;28;20029;-52
2024/01/02 06:08:12;;;;;;;121.55;36.10;;;;;;;;;;5031178;28;20083;-50
2024/01/02 06:10:38;;;;;;;127.32;38.15;;;;;;;;;;4997450;28;20022;-50
2024/01/02 06:13:05;;;;;;;108.50;34.03;;;;;;;;;;5031461;28;20109;-50
2024/01/02 06:15:31;;;;;;;118.57;35.20;;;;;;;;;;4997411;28;20020;-50
2024/01/02 06:17:58;;;;;;;174.77;47.88;;;;;;;;;;5030969;28;20064;-50
2024/01/02 06:20:24;;;;;;;174.52;45.15;;;;;;;;;;5013706;28;20033;-49
2024/01/02 06:22:50;;;;;;;110.97;34.75;;;;;;;;;;5031274;28;20029;-51
2024/01/02 06:25:16;;;;;;;108.10;34.38;;;;;;;;;;5013568;28;20025;-50
2024/01/02 06:27:43;;;;;;;126.20;38.40;;;;;;;;;;5013626;28;20037;-50
2024/01/02 06:30:09;;;;;;;114.03;36.47;;;;;;;;;;5031192;28;20507;-51
2024/01/02 06:32:35;;;;;;;98.47;35.80;;;;;;;;;;5031140;28;20112;-54
2024/01/02 06:35:01;;;;;;;125.03;35.97;;;;;;;;;;5013648;28;20022;-54
2024/01/02 06:37:28;;;;;;;120.88;34.40;;;;;;;;;;5031325;28;20041;-50
2024/01/02 06:39:54;;;;;;;97.50;33.38;;;;;;;;;;5031066;28;20369;-49
2024/01/02 06:42:21;;;;;;;196.00;45.73;;;;;;;;;;5031198;28;20113;-52
2024/01/02 06:44:47;;;;;;;184.87;44.70;;;;;;;;;;5031058;28;20460;-48
2024/01/02 06:47:13;;;;;;;114.28;35.28;;;;;;;;;;5031051;28;20267;-50
2024/01/02 06:49:39;;;;;;;130.45;37.50;;;;;;;;;;5030860;28;20033;-49
2024/01/02 06:52:06;;;;;;;94.38;31.80;;;;;;;;;;5031177;28;20052;-51
2024/01/02 06:54:32;;;;;;;91.37;32.30;;;;;;;;;;5033350;28;20022;-52
2024/01/02 06:56:59;;;;;;;109.20;36.40;;;;;;;;;;5034616;28;20100;-55
2024/01/02 06:59:25;;;;;;;126.20;34.17;;;;;;;;;;5016560;28;20037;-49
2024/01/02 07:01:52;;;;;;;113.05;36.63;;;;;;;;;;5016943;28;20033;-50
2024/01/02 07:04:18;;;;;;;123.53;34.97;;;;;;;;;;5034315;28;20057;-52
2024/01/02 07:06:44;;;;;;;105.15;32.17;;;;;;;;;;5016764;28;20029;-48
2024/01/02 07:09:10;;;;;;;95.18;33.70;;;;;;;;;;5034188;28;20049;-49
2024/01/02 07:11:36;;;;;;;84.00;32.83;;;;;;;;;;5034440;28;20021;-50
2024/01/02 07:14:03;;;;;;;80.60;30.23;;;;;;;;;;5016638;28;20029;-49
2024/01/02 07:16:31;;;;;;;82.00;29.95;;;;;;;;;;5016511;28;20103;-49
2024/01/02 07:18:58;;;;;;;80.50;31.27;;;;;;;;;;5057304;23;20045;-49
2024/01/02 07:21:24;;;;;;;84.37;29.83;;;;;;;;;;5034188;28;20032;-49
2024/01/02 07:23:50;;;;;;;103.35;31.27;;;;;;;;;;5034058;28;20018;-50
2024/01/02 07:26:17;;;;;;;133.25;34.55;;;;;;;;;;5034034;28;20052;-49
2024/01/02 07:28:43;;;;;;;100.78;33.33;;;;;;;;;;5026820;28;20026;-49
2024/01/02 07:31:11;;;;;;;97.00;32.93;;;;;;;;;;5014147;28;20084;-49
2024/01/02 07:33:37;;;;;;;161.23;36.65;;;;;;;;;;4996409;28;20121;-49
2024/01/02 07:36:03;;;;;;;136.55;38.05;;;;;;;;;;5014462;28;20034;-52
2024/01/02 07:38:30;;;;;;;152.07;39.00;;;;;;;;;;4996232;28;20369;-50
2024/01/02 07:40:56;;;;;;;117.78;36.30;;;;;;;;;;4980300;28;20037;-51
2024/01/02 07:43:24;;;;;;;127.68;37.55;;;;;;;;;;4996483;28;20034;-52
2024/01/02 07:45:50;;;;;;;184.98;40.30;;;;;;;;;;5013791;28;20088;-51
2024/01/02 07:48:17;;;;;;;237.30;49.20;;;;;;;;;;5013628;28;20057;-51
2024/01/02 07:50:43;;;;;;;207.57;43.63;;;;;;;;;;5013942;28;20467;-50
2024/01/02 07:53:09;;;;;;;155.40;39.85;;;;;;;;;;4996370;28;20049;-50
2024/01/02 07:55:35;;;;;;;138.20;36.43;;;;;;;;;;4980057;28;20087;-50
2024/01/02 07:58:02;;;;;;;139.63;36.53;;;;;;;;;;5013572;28;20033;-50
2024/01/02 08:00:28;;;;;;;108.33;35.90;;;;;;;;;;4996084;28;20145;-52
2024/01/02 08:02:54;;;;;;;94.85;32.88;;;;;;;;;;4996162;28;20064;-51
2024/01/02 08:05:20;;;;;;;95.57;33.83;;;;;;;;;;5013363;28;20045;-50
2024/01/02 08:07:46;;;;;;;98.05;32.78;;;;;;;;;;5012300;28;20030;-49
2024/01/02 08:10:13;;;;;;;179.77;47.92;;;;;;;;;;5013158;28;20029;-50
2024/01/02 08:12:39;;;;;;;145.18;39.22;;;;;;;;;;5025588;28;20079;-50
2024/01/02 08:15:05;;;;;;;105.03;35.45;;;;;;;;;;5026594;28;20560;-49
2024/01/02 08:17:31;;;;;;;131.00;38.80;;;;;;;;;;5013445;28;20029;-49
2024/01/02 08:19:57;;;;;;;192.48;45.15;;;;;;;;;;5012309;28;20514;-52
2024/01/02 08:22:24;;;;;;;111.13;35.78;;;;;;;;;;5012553;28;20030;-51
2024/01/02 08:24:51;;;;;;;106.20;34.37;;;;;;;;;;5012189;28;20025;-50
2024/01/02 08:27:17;;;;;;;103.50;33.90;;;;;;;;;;5011068;28;20030;-52
2024/01/02 08:29:43;;;;;;;112.82;37.72;;;;;;;;;;5010943;28;20026;-50
2024/01/02 08:32:09;;;;;;;120.35;39.92;;;;;;;;;;4995506;28;20034;-49
2024/01/02 08:34:35;;;;;;;82.05;30.27;;;;;;;;;;5013094;28;20029;-49
2024/01/02 08:37:02;;;;;;;111.05;34.53;;;;;;;;;;5012906;28;20101;-49
2024/01/02 08:39:28;;;;;;;116.32;36.75;;;;;;;;;;5012590;28;20034;-49
2024/01/02 08:41:54;;;;;;;105.35;34.90;;;;;;;;;;5012975;28;20034;-50
2024/01/02 08:44:20;;;;;;;155.73;41.95;;;;;;;;;;4995132;28;20033;-49
2024/01/02 08:46:46;;;;;;;106.72;36.35;;;;;;;;;;5012919;28;20022;-51
2024/01/02 08:49:14;;;;;;;102.55;32.97;;;;;;;;;;5012795;28;20404;-52
2024/01/02 08:51:40;;;;;;;121.88;35.65;;;;;;;;;;5012789;28;20028;-51
2024/01/02 08:54:06;;;;;;;90.03;31.47;;;;;;;;;;5012542;28;20040;-51
2024/01/02 08:56:33;;;;;;;115.72;34.75;;;;;;;;;;4995032;28;20052;-52
2024/01/02 08:58:59;;;;;;;94.23;32.00;;;;;;;;;;5012386;28;20034;-52
2024/01/02 09:01:26;;;;;;;82.83;28.87;;;;;;;;;;4995011;28;20025;-52
2024/01/02 09:03:53;;;;;;;75.53;30.23;;;;;;;;;;5012481;28;20034;-50
2024/01/02 09:06:19;;;;;;;68.93;28.15;;;;;;;;;;5012493;28;20632;-51
2024/01/02 09:08:46;;;;;;;73.90;27.02;;;;;;;;;;5012119;28;20026;-50
2024/01/02 09:11:12;;;;;;;79.80;31.67;;;;;;;;;;5012674;28;20101;-51
2024/01/02 09:13:39;;;;;;;77.72;30.95;;;;;;;;;;4994876;28;20376;-51
2024/01/02 09:16:05;;;;;;;87.03;32.00;;;;;;;;;;5011902;28;20026;-50
2024/01/02 09:18:31;;;;;;;124.70;35.08;;;;;;;;;;5011970;28;20403;-53
2024/01/02 09:20:59;;;;;;;93.93;35.22;;;;;;;;;;5012212;28;20377;-52
2024/01/02 09:23:25;;;;;;;105.57;35.05;;;;;;;;;;5011107;28;20091;-51
2024/01/02 09:25:54;;;;;;;94.85;36.08;;;;;;;;;;4994339;28;20030;-52
2024/01/02 09:28:21;;;;;;;89.60;32.13;;;;;;;;;;4994190;28;20033;-47
2024/01/02 09:30:48;;;;;;;88.03;33.03;;;;;;;;;;5012211;28;20026;-52
2024/01/02 09:33:14;;;;;;;88.30;33.20;;;;;;;;;;5012253;28;20502;-51
2024/01/02 09:35:42;;;;;;;77.10;31.55;;;;;;;;;;4994497;28;20041;-50
2024/01/02 09:38:08;;;;;;;77.53;32.13;;;;;;;;;;5011682;28;20025;-51
2024/01/02 09:40:59;;;;;;;80.47;31.17;;;;;;;;;;5012019;28;20026;-50
2024/01/02 09:43:39;;;;;;;67.63;28.85;;;;;;;;;;5011976;28;20225;-50
2024/01/02 09:46:10;;;;;;;74.65;29.63;;;;;;;;;;5011956;28;20135;-50
2024/01/02 09:48:37;;;;;;;70.20;29.50;;;;;;;;;;5011617;28;20045;-50
2024/01/02 09:51:03;;;;;;;73.88;28.33;;;;;;;;;;4994073;28;20164;-50
2024/01/02 09:53:49;;;;;;;83.30;30.02;;;;;;;;;;5009971;28;20030;-50
2024/01/02 09:56:15;;;;;;;79.65;31.30;;;;;;;;;;5011709;28;20169;-54
2024/01/02 09:58:56;;;;;;;70.65;30.02;;;;;;;;;;5011523;28;20057;-50
2024/01/02 10:01:28;;;;;;;97.45;34.92;;;;;;;;;;5011827;28;20528;-52
2024/01/02 10:04:12;;;;;;;92.97;33.53;;;;;;;;;;5011813;28;20541;-50
2024/01/02 10:06:57;;;;;;;79.50;29.83;;;;;;;;;;4994152;28;20032;-50
2024/01/02 10:09:30;;;;;;;74.72;30.70;;;;;;;;;;4994097;28;20034;-51
2024/01/02 10:11:59;;;;;;;81.05;31.45;;;;;;;;;;5011626;28;20126;-50
2024/01/02 10:14:36;;;;;;;65.10;27.17;;;;;;;;;;5009795;28;20080;-51
2024/01/02 10:17:03;;;;;;;;;;;;;;;;;;4997190;28;20036;-51
2024/01/02 10:19:40;;;;;;;92.30;32.08;;;;;;;;;;4993991;28;19920;-51
2024/01/02 10:22:12;;;;;;;74.72;31.48;;;;;;;;;;4992069;28;20037;-50
2024/01/02 10:24:50;;;;;;;65.93;28.33;;;;;;;;;;5002557;28;20022;-50
2024/01/02 10:27:18;;;;;;;73.63;29.90;;;;;;;;;;5010252;28;20052;-52
2024/01/02 10:29:53;;;;;;;56.10;26.73;;;;;;;;;;4995120;28;20034;-51
2024/01/02 10:32:32;;;;;;;69.72;29.98;;;;;;;;;;5012651;28;20079;-54
2024/01/02 10:35:04;;;;;;;61.35;28.70;;;;;;;;;;5014721;28;20432;-53
2024/01/02 10:37:34;;;;;;;67.72;26.25;;;;;;;;;;5014855;28;20488;-51
2024/01/02 10:40:07;;;;;;;67.75;28.88;;;;;;;;;;5012948;28;20026;-53
2024/01/02 10:42:36;;;;;;;66.55;28.85;;;;;;;;;;5012054;28;20053;-52
2024/01/02 10:45:21;;;;;;;63.33;27.55;;;;;;;;;;5013339;28;20022;-52
2024/01/02 10:47:51;;;;;;;68.38;29.00;;;;;;;;;;4995080;28;20492;-51
2024/01/02 10:50:20;;;;;;;56.75;27.67;;;;;;;;;;5014260;28;20026;-51
2024/01/02 10:52:56;;;;;;;61.17;26.17;;;;;;;;;;5016491;28;20026;-51
2024/01/02 10:55:23;;;;;;;62.33;26.35;;;;;;;;;;4995495;28;20068;-51
2024/01/02 10:58:10;;;;;;;63.87;24.47;;;;;;;;;;4995373;28;20113;-53
2024/01/02 11:00:45;;;;;;;63.78;24.63;;;;;;;;;;5006469;28;20113;-53
2024/01/02 11:03:11;;;;;;;59.25;25.13;;;;;;;;;;4993486;28;20066;-54
2024/01/02 11:05:38;;;;;;;74.60;28.05;;;;;;;;;;5008487;28;20042;-52
2024/01/02 11:08:14;;;;;;;75.30;29.75;;;;;;;;;;5012470;28;20022;-52
2024/01/02 11:10:53;;;;;;;62.63;26.88;;;;;;;;;;5006764;28;20033;-51
2024/01/02 11:13:20;;;;;;;54.60;23.15;;;;;;;;;;5000250;28;20027;-54
2024/01/02 11:15:47;;;;;;;67.00;27.10;;;;;;;;;;4986477;28;20484;-53
2024/01/02 11:18:14;;;;;;;65.00;28.73;;;;;;;;;;4985037;28;20030;-52
2024/01/02 11:20:47;;;;;;;63.38;26.58;;;;;;;;;;4986567;28;20046;-52
2024/01/02 11:23:14;;;;;;;63.22;27.55;;;;;;;;;;4993282;28;20113;-52
2024/01/02 11:25:51;;;;;;;61.67;28.05;;;;;;;;;;4995281;28;20034;-50
2024/01/02 11:28:21;;;;;;;66.72;27.90;;;;;;;;;;5001715;28;20022;-52
2024/01/02 11:30:48;;;;;;;61.67;26.33;;;;;;;;;;5012570;28;20022;-52
2024/01/02 11:33:14;;;;;;;65.50;28.05;;;;;;;;;;4994332;28;20026;-52
2024/01/02 11:35:45;;;;;;;67.63;28.45;;;;;;;;;;4991419;28;20487;-52
2024/01/02 11:38:14;;;;;;;67.70;28.92;;;;;;;;;;4995818;28;20120;-51
2024/01/02 11:40:40;;;;;;;;;;;;;;;;;;5004843;28;20080;-52
2024/01/02 11:43:35;;;;;;;68.53;29.27;;;;;;;;;;5012289;28;19910;-52
2024/01/02 11:46:02;;;;;;;61.28;26.50;;;;;;;;;;4984077;28;20058;-52
2024/01/02 11:48:28;;;;;;;69.40;29.48;;;;;;;;;;5010590;28;20041;-54
2024/01/02 11:51:01;;;;;;;58.15;26.52;;;;;;;;;;4992682;28;20033;-52
2024/01/02 11:53:47;;;;;;;57.85;25.73;;;;;;;;;;4975176;28;20117;-52
2024/01/02 11:56:17;;;;;;;57.05;25.55;;;;;;;;;;5000555;28;20060;-52
2024/01/02 11:58:48;;;;;;;60.08;26.10;;;;;;;;;;4979554;28;20452;-51
2024/01/02 12:01:14;;;;;;;63.00;29.55;;;;;;;;;;5001542;28;20033;-53
2024/01/02 12:03:49;;;;;;;75.72;36.80;;;;;;;;;;5011679;28;20034;-52
2024/01/02 12:06:29;;;;;;;66.10;28.38;;;;;;;;;;4986404;28;20026;-51
2024/01/02 12:09:04;;;;;;;75.43;30.23;;;;;;;;;;4996694;28;20046;-52
2024/01/02 12:11:30;;;;;;;76.32;31.50;;;;;;;;;;5004616;28;20026;-52
2024/01/02 12:14:15;;;;;;;58.60;31.75;;;;;;;;;;4998794;28;20544;-54
2024/01/02 12:16:43;;;;;;;64.43;30.38;;;;;;;;;;5005164;28;20073;-52
2024/01/02 12:19:09;;;;;;;67.32;33.85;;;;;;;;;;4993992;28;20508;-53
2024/01/02 12:21:39;;;;;;;59.97;30.08;;;;;;;;;;4999146;28;20045;-53
2024/01/02 12:24:05;;;;;;;68.57;32.53;;;;;;;;;;4998950;28;20058;-53
2024/01/02 12:26:35;;;;;;;111.28;60.03;;;;;;;;;;4981080;28;20038;-49
2024/01/02 12:29:01;;;;;;;96.03;49.67;;;;;;;;;;5005859;28;20040;-55
2024/01/02 12:31:41;;;;;;;111.35;60.75;;;;;;;;;;5004519;28;20038;-56
2024/01/02 12:34:07;;;;;;;87.13;41.10;;;;;;;;;;5011377;28;20677;-53
2024/01/02 12:36:39;;;;;;;65.15;31.40;;;;;;;;;;5008857;28;20843;-53
2024/01/02 12:39:06;;;;;;;75.78;32.03;;;;;;;;;;4973966;28;20096;-52
2024/01/02 12:41:42;;;;;;;92.55;45.67;;;;;;;;;;4976198;28;20031;-54
2024/01/02 12:44:08;;;;;;;74.00;33.60;;;;;;;;;;5011171;28;20044;-52
2024/01/02 12:46:52;;;;;;;80.30;38.13;;;;;;;;;;5002513;28;20056;-51
2024/01/02 12:49:42;;;;;;;68.50;32.63;;;;;;;;;;5000446;28;20079;-53
2024/01/02 12:52:10;;;;;;;52.97;27.50;;;;;;;;;;5002500;28;20128;-52
2024/01/02 12:54:40;;;;;;;65.47;36.22;;;;;;;;;;5011068;28;20030;-52
2024/01/02 12:57:09;;;;;;;55.17;26.75;;;;;;;;;;4992303;28;20077;-51
2024/01/02 12:59:36;;;;;;;54.22;24.10;;;;;;;;;;4995822;28;20030;-51
2024/01/02 13:02:06;;;;;;;55.80;25.90;;;;;;;;;;5008868;28;20051;-52
2024/01/02 13:04:35;;;;;;;113.82;60.22;;;;;;;;;;5003534;28;20034;-51
2024/01/02 13:07:05;;;;;;;95.97;50.65;;;;;;;;;;4992501;28;20030;-52
2024/01/02 13:09:32;;;;;;;78.07;35.35;;;;;;;;;;5004866;28;20472;-53
2024/01/02 13:11:59;;;;;;;47.92;23.27;;;;;;;;;;4998688;28;20061;-52
2024/01/02 13:14:25;;;;;;;51.58;27.02;;;;;;;;;;4991468;28;20515;-51
2024/01/02 13:16:51;;;;;;;54.65;27.30;;;;;;;;;;4999781;28;20026;-51
2024/01/02 13:19:18;;;;;;;58.67;26.85;;;;;;;;;;4991360;28;20531;-53
2024/01/02 13:21:44;;;;;;;70.53;41.70;;;;;;;;;;4991117;28;20032;-53
2024/01/02 13:24:11;;;;;;;71.93;41.50;;;;;;;;;;4990924;28;20080;-52
2024/01/02 13:26:44;;;;;;;63.85;28.40;;;;;;;;;;4985614;28;20101;-56
2024/01/02 13:29:11;;;;;;;67.38;29.20;;;;;;;;;;4990662;28;20396;-52
2024/01/02 13:31:38;;;;;;;72.22;33.47;;;;;;;;;;4983242;28;20022;-52
2024/01/02 13:34:04;;;;;;;;;;;;;;;;;;5010572;28;20030;-53
2024/01/02 13:36:30;;;;;;;67.78;34.83;;;;;;;;;;4995786;28;19910;-52
2024/01/02 13:38:57;;;;;;;71.60;31.80;;;;;;;;;;4999686;28;20496;-53
2024/01/02 13:41:24;;;;;;;57.57;27.87;;;;;;;;;;4992143;28;20041;-51
2024/01/02 13:43:51;;;;;;;68.55;30.30;;;;;;;;;;4992272;28;20287;-51
2024/01/02 13:46:20;;;;;;;69.75;33.40;;;;;;;;;;5011861;28;20026;-51
2024/01/02 13:48:58;;;;;;;56.05;27.77;;;;;;;;;;5011492;28;20026;-50
2024/01/02 13:51:29;;;;;;;65.13;29.08;;;;;;;;;;4993610;28;20033;-51
2024/01/02 13:54:02;;;;;;;67.93;28.13;;;;;;;;;;5010869;28;20037;-51
2024/01/02 13:56:30;;;;;;;67.00;30.08;;;;;;;;;;4994051;28;20033;-51
2024/01/02 13:59:07;;;;;;;67.13;29.77;;;;;;;;;;5011496;28;20040;-56
2024/01/02 14:01:33;;;;;;;75.35;33.15;;;;;;;;;;5011755;28;20053;-51
2024/01/02 14:04:01;;;;;;;62.72;29.42;;;;;;;;;;4997635;28;20404;-51
2024/01/02 14:06:27;;;;;;;61.08;27.10;;;;;;;;;;5015598;28;20480;-52
2024/01/02 14:09:09;;;;;;;53.47;26.77;;;;;;;;;;5015501;28;20069;-52
2024/01/02 14:11:35;;;;;;;57.45;26.05;;;;;;;;;;4998024;28;20033;-52
2024/01/02 14:14:16;;;;;;;57.28;26.45;;;;;;;;;;5015637;28;20026;-51
2024/01/02 14:16:44;;;;;;;55.70;26.42;;;;;;;;;;5015636;28;20033;-52